Time;durP1;ratioP1;P1;durP2;ratioP2;P2;SDS_P1;SDS_P2;PMS_P1;PMS_P2;Temp;Humidity;BMP_temperature;BMP_pressure;BME280_temperature;BME280_humidity;BME280_pressure;Samples;Min_cycle;Max_cycle;Signal;HPM_P1;HPM_P2
2022/01/13 00:00:37;;;;;;;19.75;7.22;;;;;;;;;;4952472;28;20040;-77
2022/01/13 00:03:06;;;;;;;17.93;7.03;;;;;;;;;;4950565;28;20051;-77
2022/01/13 00:05:35;;;;;;;15.25;6.05;;;;;;;;;;4953196;28;20490;-77
2022/01/13 00:08:06;;;;;;;13.93;6.38;;;;;;;;;;4950135;28;20490;-77
2022/01/13 00:10:35;;;;;;;15.93;6.95;;;;;;;;;;4952359;28;20541;-77
2022/01/13 00:13:07;;;;;;;16.10;5.85;;;;;;;;;;4950785;28;20059;-77
2022/01/13 00:15:41;;;;;;;14.87;6.67;;;;;;;;;;4950553;28;20051;-77
2022/01/13 00:18:13;;;;;;;14.63;6.65;;;;;;;;;;4950816;28;20561;-77
2022/01/13 00:21:11;;;;;;;17.33;6.88;;;;;;;;;;4966563;28;20478;-77
2022/01/13 00:23:44;;;;;;;17.10;6.63;;;;;;;;;;4952669;28;20741;-77
2022/01/13 00:26:20;;;;;;;14.38;6.32;;;;;;;;;;4951910;28;20043;-77
2022/01/13 00:28:51;;;;;;;18.83;6.97;;;;;;;;;;4953784;28;20039;-77
2022/01/13 00:31:24;;;;;;;15.40;6.72;;;;;;;;;;4952442;28;20055;-77
2022/01/13 00:33:55;;;;;;;14.27;6.00;;;;;;;;;;4951332;29;20525;-77
2022/01/13 00:36:25;;;;;;;15.32;7.38;;;;;;;;;;4951743;28;20057;-77
2022/01/13 00:38:56;;;;;;;16.35;7.18;;;;;;;;;;4954973;28;20047;-77
2022/01/13 00:41:27;;;;;;;15.27;6.47;;;;;;;;;;4950816;28;20077;-77
2022/01/13 00:43:56;;;;;;;14.45;6.07;;;;;;;;;;4954032;28;20043;-77
2022/01/13 00:46:30;;;;;;;12.05;5.85;;;;;;;;;;4951098;28;20156;-77
2022/01/13 00:48:59;;;;;;;13.13;5.80;;;;;;;;;;4951829;28;20039;-77
2022/01/13 00:51:28;;;;;;;12.25;6.22;;;;;;;;;;4949965;28;20042;-77
2022/01/13 00:54:03;;;;;;;14.73;6.40;;;;;;;;;;4965042;28;20134;-76
2022/01/13 00:56:32;;;;;;;11.48;5.15;;;;;;;;;;4950540;28;20576;-77
2022/01/13 00:59:03;;;;;;;15.00;7.28;;;;;;;;;;4951213;28;20046;-77
2022/01/13 01:01:32;;;;;;;14.85;6.05;;;;;;;;;;4951127;29;20545;-77
2022/01/13 01:04:02;;;;;;;13.52;5.35;;;;;;;;;;4950987;28;20462;-77
2022/01/13 01:06:31;;;;;;;13.73;6.40;;;;;;;;;;4953777;28;20055;-77
2022/01/13 01:09:02;;;;;;;13.88;5.72;;;;;;;;;;4950516;28;20082;-77
2022/01/13 01:11:32;;;;;;;10.00;5.10;;;;;;;;;;4951765;28;20481;-77
2022/01/13 01:14:03;;;;;;;14.45;5.45;;;;;;;;;;4949070;28;20102;-77
2022/01/13 01:16:33;;;;;;;12.57;6.70;;;;;;;;;;4951797;28;20134;-77
2022/01/13 01:19:05;;;;;;;12.17;6.07;;;;;;;;;;4933173;28;20060;-77
2022/01/13 01:27:35;;;;;;;16.17;6.15;;;;;;;;;;4947373;28;20130;-77
2022/01/13 01:30:10;;;;;;;12.45;5.85;;;;;;;;;;4950294;28;20050;-77
2022/01/13 01:33:06;;;;;;;13.57;5.93;;;;;;;;;;4953169;28;20039;-77
2022/01/13 01:35:37;;;;;;;15.70;6.18;;;;;;;;;;4955016;28;21052;-77
2022/01/13 01:38:07;;;;;;;13.70;6.70;;;;;;;;;;4936138;29;20043;-77
2022/01/13 01:44:00;;;;;;;11.95;5.55;;;;;;;;;;4957052;28;20046;-76
2022/01/13 01:46:35;;;;;;;12.20;6.33;;;;;;;;;;4954560;28;20051;-77
2022/01/13 01:49:14;;;;;;;10.55;5.65;;;;;;;;;;4954538;28;20510;-77
2022/01/13 01:51:44;;;;;;;13.20;6.05;;;;;;;;;;4950984;28;20094;-77
2022/01/13 01:54:13;;;;;;;15.70;6.85;;;;;;;;;;4954693;28;20047;-77
2022/01/13 01:56:45;;;;;;;12.90;6.55;;;;;;;;;;4934644;29;20040;-77
2022/01/13 01:59:16;;;;;;;13.80;6.93;;;;;;;;;;4939995;28;20047;-77
2022/01/13 02:01:46;;;;;;;13.98;6.43;;;;;;;;;;4955726;29;20043;-77
2022/01/13 02:04:16;;;;;;;17.77;7.00;;;;;;;;;;4951845;28;20433;-77
2022/01/13 02:06:46;;;;;;;13.05;5.95;;;;;;;;;;4956105;28;20490;-77
2022/01/13 02:09:17;;;;;;;16.00;6.53;;;;;;;;;;4952961;28;20050;-77
2022/01/13 02:11:52;;;;;;;10.93;5.67;;;;;;;;;;4952600;28;20036;-77
2022/01/13 02:14:34;;;;;;;15.82;6.05;;;;;;;;;;4953351;28;20039;-77
2022/01/13 02:17:08;;;;;;;17.75;7.07;;;;;;;;;;4955226;28;20050;-77
2022/01/13 02:19:38;;;;;;;18.17;6.93;;;;;;;;;;4936245;28;20043;-77
2022/01/13 02:22:08;;;;;;;15.18;7.30;;;;;;;;;;4953083;28;20106;-77
2022/01/13 02:24:37;;;;;;;14.27;7.07;;;;;;;;;;4951369;29;20103;-77
2022/01/13 02:27:08;;;;;;;18.60;6.85;;;;;;;;;;4939245;28;20064;-77
2022/01/13 02:29:36;;;;;;;16.40;6.55;;;;;;;;;;4939751;28;20047;-77
2022/01/13 02:32:06;;;;;;;15.65;7.35;;;;;;;;;;4939948;28;20043;-77
2022/01/13 02:34:35;;;;;;;11.27;5.65;;;;;;;;;;4937284;29;20057;-77
2022/01/13 02:37:05;;;;;;;17.53;7.03;;;;;;;;;;4952618;28;20171;-77
2022/01/13 02:39:36;;;;;;;14.80;6.40;;;;;;;;;;4957387;28;20069;-77
2022/01/13 02:42:11;;;;;;;14.85;6.40;;;;;;;;;;4953293;28;20047;-77
2022/01/13 02:44:49;;;;;;;17.75;6.68;;;;;;;;;;4939045;29;20130;-77
2022/01/13 02:47:35;;;;;;;14.82;6.95;;;;;;;;;;4952396;28;20071;-77
2022/01/13 02:50:09;;;;;;;11.73;6.23;;;;;;;;;;4954098;28;20079;-76
2022/01/13 02:53:03;;;;;;;18.10;7.20;;;;;;;;;;4952055;28;20043;-78
2022/01/13 02:55:34;;;;;;;15.20;6.47;;;;;;;;;;4956446;28;20089;-77
2022/01/13 02:58:03;;;;;;;16.25;5.95;;;;;;;;;;4953419;28;20134;-77
2022/01/13 03:00:33;;;;;;;16.00;6.88;;;;;;;;;;4922113;28;20138;-77
2022/01/13 03:03:02;;;;;;;13.67;7.20;;;;;;;;;;4921694;29;20070;-77
2022/01/13 03:05:37;;;;;;;13.10;5.80;;;;;;;;;;4956154;28;20126;-77
2022/01/13 03:08:06;;;;;;;14.57;6.07;;;;;;;;;;4955654;28;20506;-77
2022/01/13 03:10:36;;;;;;;14.20;6.35;;;;;;;;;;4952097;28;20047;-77
2022/01/13 03:13:07;;;;;;;14.00;6.55;;;;;;;;;;4954055;28;20050;-77
2022/01/13 03:15:39;;;;;;;12.87;5.80;;;;;;;;;;4951020;28;20039;-77
2022/01/13 03:18:09;;;;;;;11.90;5.22;;;;;;;;;;4951261;28;20067;-77
2022/01/13 03:20:41;;;;;;;12.65;5.05;;;;;;;;;;4951375;28;20043;-77
2022/01/13 03:23:10;;;;;;;14.32;6.72;;;;;;;;;;4936452;29;20039;-77
2022/01/13 03:25:44;;;;;;;17.15;6.95;;;;;;;;;;4950380;28;20038;-77
2022/01/13 03:28:17;;;;;;;17.40;6.87;;;;;;;;;;4952095;28;20043;-76
2022/01/13 03:30:46;;;;;;;12.63;5.43;;;;;;;;;;4952474;28;20128;-77
2022/01/13 03:33:16;;;;;;;11.73;5.18;;;;;;;;;;4951763;28;20113;-77
2022/01/13 03:35:45;;;;;;;16.88;6.15;;;;;;;;;;4953348;28;20054;-77
2022/01/13 03:38:14;;;;;;;11.48;7.10;;;;;;;;;;4938712;28;20119;-77
2022/01/13 03:40:44;;;;;;;13.53;5.77;;;;;;;;;;4954344;28;20043;-77
2022/01/13 03:43:15;;;;;;;14.82;6.30;;;;;;;;;;4952118;28;20132;-77
2022/01/13 03:45:46;;;;;;;11.60;6.07;;;;;;;;;;4955426;28;20054;-77
2022/01/13 03:48:38;;;;;;;13.85;6.82;;;;;;;;;;4934407;29;20046;-77
2022/01/13 03:51:08;;;;;;;13.85;6.80;;;;;;;;;;4953314;28;20039;-77
2022/01/13 03:53:56;;;;;;;13.13;6.33;;;;;;;;;;4953067;28;20496;-77
2022/01/13 03:56:55;;;;;;;16.08;8.20;;;;;;;;;;4954228;28;20065;-77
2022/01/13 03:59:46;;;;;;;16.48;7.05;;;;;;;;;;4876155;29;20041;-77
2022/01/13 04:02:16;;;;;;;13.95;6.05;;;;;;;;;;4932420;29;20072;-77
2022/01/13 04:04:46;;;;;;;18.38;6.78;;;;;;;;;;4931368;28;20039;-76
2022/01/13 04:07:17;;;;;;;13.43;5.77;;;;;;;;;;4954504;28;20557;-76
2022/01/13 04:10:04;;;;;;;16.23;6.15;;;;;;;;;;4952015;28;20050;-77
2022/01/13 04:12:33;;;;;;;11.15;5.57;;;;;;;;;;4952872;28;20053;-76
2022/01/13 04:15:11;;;;;;;12.02;5.53;;;;;;;;;;4953087;28;20043;-77
2022/01/13 04:17:40;;;;;;;15.98;6.97;;;;;;;;;;4952308;28;20047;-77
2022/01/13 04:20:10;;;;;;;13.43;5.73;;;;;;;;;;4936254;29;20068;-77
2022/01/13 04:22:40;;;;;;;18.92;7.15;;;;;;;;;;4952312;28;20050;-77
2022/01/13 04:25:09;;;;;;;12.85;5.97;;;;;;;;;;4953596;28;20051;-77
2022/01/13 04:27:42;;;;;;;15.82;6.60;;;;;;;;;;4935561;29;20474;-77
2022/01/13 04:33:01;;;;;;;13.83;6.67;;;;;;;;;;4950563;28;20043;-77
2022/01/13 04:35:30;;;;;;;14.98;5.82;;;;;;;;;;4949176;28;20551;-77
2022/01/13 04:37:59;;;;;;;14.27;5.78;;;;;;;;;;4951479;28;20047;-77
2022/01/13 04:40:29;;;;;;;14.70;6.20;;;;;;;;;;4951687;28;20049;-77
2022/01/13 04:42:58;;;;;;;14.35;5.60;;;;;;;;;;4949819;28;20062;-76
2022/01/13 04:45:36;;;;;;;14.23;6.37;;;;;;;;;;4916800;29;20130;-77
2022/01/13 04:48:30;;;;;;;14.18;6.25;;;;;;;;;;4947448;28;20086;-77
2022/01/13 04:51:00;;;;;;;15.45;6.65;;;;;;;;;;4950479;28;20047;-77
2022/01/13 04:53:30;;;;;;;10.00;5.65;;;;;;;;;;4948972;28;20413;-76
2022/01/13 04:56:08;;;;;;;10.85;5.78;;;;;;;;;;4929930;29;20450;-77
2022/01/13 04:58:37;;;;;;;12.20;6.10;;;;;;;;;;4949411;28;20557;-77
2022/01/13 05:01:10;;;;;;;16.55;6.75;;;;;;;;;;4933273;28;20047;-77
2022/01/13 05:03:40;;;;;;;11.25;5.10;;;;;;;;;;4950940;29;20062;-78
2022/01/13 05:06:09;;;;;;;16.48;7.57;;;;;;;;;;4951493;28;20465;-77
2022/01/13 05:08:38;;;;;;;13.80;6.28;;;;;;;;;;4938739;29;20047;-77
2022/01/13 05:11:10;;;;;;;12.93;6.00;;;;;;;;;;4952049;28;20043;-78
2022/01/13 05:13:39;;;;;;;14.20;6.47;;;;;;;;;;4952220;29;20067;-77
2022/01/13 05:16:19;;;;;;;12.15;5.80;;;;;;;;;;4951582;28;20040;-77
2022/01/13 05:18:54;;;;;;;12.40;5.40;;;;;;;;;;4955500;28;20371;-77
2022/01/13 05:21:25;;;;;;;15.98;6.35;;;;;;;;;;4953250;28;20043;-77
2022/01/13 05:23:55;;;;;;;13.77;5.97;;;;;;;;;;4954361;28;20567;-77
2022/01/13 05:26:25;;;;;;;14.48;6.32;;;;;;;;;;4953180;28;20126;-77
2022/01/13 05:28:54;;;;;;;16.13;6.32;;;;;;;;;;4968257;28;20145;-77
2022/01/13 05:31:25;;;;;;;13.70;5.47;;;;;;;;;;4954532;28;20051;-77
2022/01/13 05:33:55;;;;;;;19.92;7.97;;;;;;;;;;4952095;28;20501;-76
2022/01/13 05:36:25;;;;;;;13.60;5.97;;;;;;;;;;4934483;28;20072;-76
2022/01/13 05:38:56;;;;;;;14.55;7.10;;;;;;;;;;4953345;28;20058;-75
2022/01/13 05:41:25;;;;;;;14.77;5.47;;;;;;;;;;4953807;28;20062;-75
2022/01/13 05:43:54;;;;;;;13.88;5.80;;;;;;;;;;4951525;28;20122;-74
2022/01/13 05:46:26;;;;;;;11.80;6.55;;;;;;;;;;4952557;28;20053;-74
2022/01/13 05:48:56;;;;;;;14.93;7.07;;;;;;;;;;4950465;28;20718;-75
2022/01/13 05:51:26;;;;;;;14.77;7.05;;;;;;;;;;4956180;28;20051;-75
2022/01/13 05:53:55;;;;;;;16.55;7.50;;;;;;;;;;4956710;28;20151;-79
2022/01/13 05:56:25;;;;;;;15.00;6.85;;;;;;;;;;4954176;28;20120;-80
2022/01/13 05:59:21;;;;;;;14.30;5.95;;;;;;;;;;4930109;29;20608;-80
2022/01/13 06:01:52;;;;;;;18.03;6.37;;;;;;;;;;4941058;28;20066;-77
2022/01/13 06:04:47;;;;;;;17.95;7.55;;;;;;;;;;4943916;28;20045;-74
2022/01/13 06:07:17;;;;;;;15.07;5.65;;;;;;;;;;4937773;28;20430;-79
2022/01/13 06:09:48;;;;;;;15.00;5.65;;;;;;;;;;4952913;28;20051;-76
2022/01/13 06:12:20;;;;;;;16.83;7.07;;;;;;;;;;4953273;28;20057;-77
2022/01/13 06:14:50;;;;;;;16.40;6.67;;;;;;;;;;4920680;29;20062;-76
2022/01/13 06:17:20;;;;;;;13.20;6.18;;;;;;;;;;4953184;28;20035;-73
2022/01/13 06:19:50;;;;;;;13.80;5.43;;;;;;;;;;4954472;28;20051;-77
2022/01/13 06:22:20;;;;;;;9.82;4.82;;;;;;;;;;4951559;28;20454;-77
2022/01/13 06:24:49;;;;;;;13.52;6.05;;;;;;;;;;4957372;28;20071;-76
2022/01/13 06:27:18;;;;;;;14.13;6.37;;;;;;;;;;4955101;28;20039;-76
2022/01/13 06:29:47;;;;;;;10.48;5.43;;;;;;;;;;4955156;28;20683;-77
2022/01/13 06:32:41;;;;;;;17.15;6.93;;;;;;;;;;4953907;28;20042;-77
2022/01/13 06:35:12;;;;;;;11.88;5.45;;;;;;;;;;4954817;28;20417;-77
2022/01/13 06:37:42;;;;;;;10.70;6.13;;;;;;;;;;4954635;28;20062;-77
2022/01/13 06:40:12;;;;;;;16.17;7.33;;;;;;;;;;4953498;28;20086;-76
2022/01/13 06:42:42;;;;;;;16.38;6.63;;;;;;;;;;4935252;29;20051;-76
2022/01/13 06:45:13;;;;;;;10.40;6.15;;;;;;;;;;4954290;28;20529;-76
2022/01/13 06:47:43;;;;;;;20.25;7.50;;;;;;;;;;4956014;29;20039;-76
2022/01/13 06:53:06;;;;;;;13.13;5.83;;;;;;;;;;4955245;29;20090;-77
2022/01/13 06:55:35;;;;;;;13.98;6.57;;;;;;;;;;4953314;28;20051;-77
2022/01/13 06:58:05;;;;;;;13.40;6.22;;;;;;;;;;4953622;28;20082;-77
2022/01/13 07:00:34;;;;;;;13.32;5.88;;;;;;;;;;4951698;28;20043;-77
2022/01/13 07:03:04;;;;;;;16.00;7.40;;;;;;;;;;4954236;28;20055;-76
2022/01/13 07:05:36;;;;;;;15.20;5.90;;;;;;;;;;4951196;28;20102;-77
2022/01/13 07:08:06;;;;;;;14.30;7.00;;;;;;;;;;4950645;28;20054;-77
2022/01/13 07:10:36;;;;;;;12.77;6.28;;;;;;;;;;4953216;28;20043;-77
2022/01/13 07:13:06;;;;;;;15.55;6.28;;;;;;;;;;4952791;28;20081;-77
2022/01/13 07:16:01;;;;;;;18.33;7.43;;;;;;;;;;4948172;29;20051;-77
2022/01/13 07:18:30;;;;;;;13.50;6.20;;;;;;;;;;4952184;28;20738;-77
2022/01/13 07:21:01;;;;;;;15.10;6.65;;;;;;;;;;4954689;28;20055;-77
2022/01/13 07:23:30;;;;;;;16.08;7.30;;;;;;;;;;4949004;28;20050;-77
2022/01/13 07:25:59;;;;;;;13.82;6.75;;;;;;;;;;4952952;28;20494;-77
2022/01/13 07:28:28;;;;;;;17.30;7.55;;;;;;;;;;4952113;28;20615;-76
2022/01/13 07:30:58;;;;;;;12.53;5.83;;;;;;;;;;4954655;28;20043;-76
2022/01/13 07:33:28;;;;;;;17.20;6.82;;;;;;;;;;4951032;28;20047;-77
2022/01/13 07:35:58;;;;;;;19.60;8.52;;;;;;;;;;4954769;28;20391;-77
2022/01/13 07:38:28;;;;;;;14.55;6.75;;;;;;;;;;4949853;28;20052;-77
2022/01/13 07:40:57;;;;;;;15.23;6.38;;;;;;;;;;4932329;28;20043;-77
2022/01/13 07:43:26;;;;;;;16.00;6.97;;;;;;;;;;4950557;29;20127;-77
2022/01/13 07:45:56;;;;;;;15.25;6.15;;;;;;;;;;4935953;28;20182;-77
2022/01/13 07:48:26;;;;;;;22.05;6.68;;;;;;;;;;4953044;28;20137;-77
2022/01/13 07:50:56;;;;;;;12.35;6.20;;;;;;;;;;4934513;28;20122;-77
2022/01/13 07:53:27;;;;;;;14.65;7.05;;;;;;;;;;4953722;28;20039;-77
2022/01/13 07:55:56;;;;;;;16.10;6.20;;;;;;;;;;4949145;28;20051;-77
2022/01/13 07:58:25;;;;;;;26.02;7.28;;;;;;;;;;4951982;28;20058;-77
2022/01/13 08:00:54;;;;;;;18.05;8.02;;;;;;;;;;4950574;28;20047;-77
2022/01/13 08:03:24;;;;;;;16.50;6.75;;;;;;;;;;4948195;28;20056;-77
2022/01/13 08:05:53;;;;;;;15.65;7.28;;;;;;;;;;4950556;28;20058;-77
2022/01/13 08:08:22;;;;;;;12.20;6.73;;;;;;;;;;4952542;28;20122;-77
2022/01/13 08:10:53;;;;;;;12.75;6.05;;;;;;;;;;4951094;28;20109;-77
2022/01/13 08:13:21;;;;;;;11.43;6.28;;;;;;;;;;4952212;28;20071;-77
2022/01/13 08:15:54;;;;;;;18.13;6.10;;;;;;;;;;4936372;29;20105;-77
2022/01/13 08:21:14;;;;;;;16.73;6.67;;;;;;;;;;4952719;29;20047;-77
2022/01/13 08:23:43;;;;;;;10.45;5.95;;;;;;;;;;4949802;28;20051;-77
2022/01/13 08:26:13;;;;;;;12.77;6.70;;;;;;;;;;4952596;28;20047;-77
2022/01/13 08:28:42;;;;;;;17.45;6.75;;;;;;;;;;4948691;28;20050;-77
2022/01/13 08:31:12;;;;;;;11.80;6.22;;;;;;;;;;4952511;28;20047;-77
2022/01/13 08:33:41;;;;;;;14.73;7.47;;;;;;;;;;4945504;28;20061;-77
2022/01/13 08:36:36;;;;;;;14.52;6.65;;;;;;;;;;4951018;28;20058;-77
2022/01/13 08:39:04;;;;;;;16.35;6.57;;;;;;;;;;4934086;28;20139;-77
2022/01/13 08:41:35;;;;;;;13.45;6.75;;;;;;;;;;4930906;29;20153;-76
2022/01/13 08:44:10;;;;;;;12.95;6.07;;;;;;;;;;4951739;28;20494;-77
2022/01/13 08:46:38;;;;;;;15.93;6.27;;;;;;;;;;4951186;28;20043;-77
2022/01/13 08:49:09;;;;;;;14.05;6.82;;;;;;;;;;4952008;29;20055;-78
2022/01/13 08:51:38;;;;;;;16.20;8.57;;;;;;;;;;4950942;28;20059;-78
2022/01/13 08:54:07;;;;;;;19.23;7.03;;;;;;;;;;4953561;28;20051;-77
2022/01/13 08:56:38;;;;;;;14.93;6.90;;;;;;;;;;4948405;28;20070;-77
2022/01/13 08:59:07;;;;;;;18.47;6.53;;;;;;;;;;4952304;28;20047;-77
2022/01/13 09:01:36;;;;;;;14.15;5.65;;;;;;;;;;4931800;29;20055;-77
2022/01/13 09:04:05;;;;;;;18.35;7.20;;;;;;;;;;4951024;28;20043;-77
2022/01/13 09:06:35;;;;;;;18.75;7.90;;;;;;;;;;4948918;28;20035;-75
2022/01/13 09:09:04;;;;;;;18.40;7.03;;;;;;;;;;4912918;29;20586;-76
2022/01/13 09:11:33;;;;;;;15.10;6.43;;;;;;;;;;4950749;29;20041;-75
2022/01/13 09:14:03;;;;;;;17.08;7.57;;;;;;;;;;4950662;28;20047;-77
2022/01/13 09:16:41;;;;;;;13.68;6.18;;;;;;;;;;4952429;29;20051;-77
2022/01/13 09:19:11;;;;;;;16.55;6.50;;;;;;;;;;4950234;28;20126;-77
2022/01/13 09:21:41;;;;;;;13.23;6.75;;;;;;;;;;4952474;28;20043;-77
2022/01/13 09:24:11;;;;;;;19.27;6.77;;;;;;;;;;4949107;28;20051;-77
2022/01/13 09:26:40;;;;;;;18.67;7.00;;;;;;;;;;4952763;28;20043;-77
2022/01/13 09:29:11;;;;;;;17.80;6.88;;;;;;;;;;4932294;29;20047;-77
2022/01/13 09:31:41;;;;;;;14.02;7.40;;;;;;;;;;4946595;28;20106;-77
2022/01/13 09:34:10;;;;;;;13.90;5.82;;;;;;;;;;4947972;28;20062;-77
2022/01/13 09:36:40;;;;;;;12.90;5.43;;;;;;;;;;4932991;29;20043;-77
2022/01/13 09:39:10;;;;;;;11.10;6.10;;;;;;;;;;4945321;28;20070;-77
2022/01/13 09:41:42;;;;;;;10.38;5.28;;;;;;;;;;4948756;28;20039;-77
2022/01/13 09:44:15;;;;;;;13.68;4.55;;;;;;;;;;4948099;29;20443;-77
2022/01/13 09:46:46;;;;;;;12.23;4.35;;;;;;;;;;4946911;28;20126;-77
2022/01/13 09:49:15;;;;;;;11.37;4.47;;;;;;;;;;4929905;29;20118;-77
2022/01/13 09:51:45;;;;;;;14.07;5.93;;;;;;;;;;4945417;28;20073;-77
2022/01/13 09:54:16;;;;;;;10.75;5.28;;;;;;;;;;4952154;28;20055;-78
2022/01/13 09:56:52;;;;;;;10.50;4.82;;;;;;;;;;4930743;29;20043;-77
2022/01/13 09:59:22;;;;;;;15.77;5.82;;;;;;;;;;4935333;29;20040;-77
2022/01/13 10:01:51;;;;;;;12.67;5.43;;;;;;;;;;4934878;29;20044;-77
2022/01/13 10:04:21;;;;;;;10.48;5.00;;;;;;;;;;4932792;29;20075;-77
2022/01/13 10:06:55;;;;;;;12.25;5.25;;;;;;;;;;4931203;29;20479;-77
2022/01/13 10:09:49;;;;;;;15.80;5.75;;;;;;;;;;4934002;29;20044;-77
2022/01/13 10:12:24;;;;;;;13.38;6.18;;;;;;;;;;4934787;29;20605;-77
2022/01/13 10:17:48;;;;;;;13.55;5.80;;;;;;;;;;4936733;29;20435;-77
2022/01/13 10:20:18;;;;;;;17.40;7.40;;;;;;;;;;4934264;29;20497;-77
2022/01/13 10:22:48;;;;;;;19.52;6.10;;;;;;;;;;4935791;29;20490;-76
2022/01/13 10:25:27;;;;;;;12.73;5.80;;;;;;;;;;4934206;29;20051;-76
2022/01/13 10:27:56;;;;;;;13.97;6.07;;;;;;;;;;4933729;29;20047;-76
2022/01/13 10:30:26;;;;;;;17.35;7.10;;;;;;;;;;4934157;29;20043;-76
2022/01/13 10:32:57;;;;;;;19.45;7.35;;;;;;;;;;4934550;29;20099;-76
2022/01/13 10:35:26;;;;;;;11.77;6.47;;;;;;;;;;4931724;29;20043;-76
2022/01/13 10:38:01;;;;;;;14.57;6.93;;;;;;;;;;4933488;29;20044;-76
2022/01/13 10:40:37;;;;;;;14.97;6.47;;;;;;;;;;4931800;29;20064;-76
2022/01/13 10:43:10;;;;;;;14.38;6.55;;;;;;;;;;4926235;29;20051;-77
2022/01/13 10:46:07;;;;;;;14.60;6.40;;;;;;;;;;4955976;28;20047;-80
2022/01/13 10:48:37;;;;;;;11.95;5.78;;;;;;;;;;4954524;28;20048;-80
2022/01/13 10:51:11;;;;;;;16.35;5.93;;;;;;;;;;4923331;29;20046;-78
2022/01/13 10:53:41;;;;;;;15.67;6.37;;;;;;;;;;4933671;29;20134;-78
2022/01/13 10:56:11;;;;;;;14.05;6.75;;;;;;;;;;4945103;28;20078;-78
2022/01/13 10:58:41;;;;;;;13.57;5.97;;;;;;;;;;4952124;28;20418;-78
2022/01/13 11:01:14;;;;;;;14.52;5.82;;;;;;;;;;4954146;29;20031;-79
2022/01/13 11:10:09;;;;;;;12.73;6.20;;;;;;;;;;5785814;23;20019;-81
2022/01/13 11:12:59;;;;;;;14.88;6.18;;;;;;;;;;4967288;28;20592;-77
2022/01/13 11:15:51;;;;;;;12.50;5.38;;;;;;;;;;4971264;28;20055;-77
2022/01/13 11:19:00;;;;;;;10.30;5.72;;;;;;;;;;4968576;28;20043;-76
2022/01/13 11:21:31;;;;;;;12.33;6.17;;;;;;;;;;4969883;28;20051;-77
2022/01/13 11:27:33;;;;;;;12.52;5.53;;;;;;;;;;4973341;28;20417;-77
2022/01/13 11:30:02;;;;;;;16.25;6.20;;;;;;;;;;4967113;28;20078;-76
2022/01/13 11:32:31;;;;;;;12.43;5.82;;;;;;;;;;4954550;28;20051;-77
2022/01/13 11:35:21;;;;;;;13.17;5.63;;;;;;;;;;4965361;28;20038;-77
2022/01/13 11:37:52;;;;;;;14.05;6.35;;;;;;;;;;4973004;28;20039;-77
2022/01/13 11:40:36;;;;;;;15.30;6.25;;;;;;;;;;4965479;28;20474;-77
2022/01/13 11:43:25;;;;;;;15.00;5.95;;;;;;;;;;4955223;28;20062;-77
2022/01/13 11:45:55;;;;;;;14.60;6.05;;;;;;;;;;4954278;28;20063;-77
2022/01/13 11:48:25;;;;;;;12.67;6.27;;;;;;;;;;4955995;28;20699;-77
2022/01/13 11:51:18;;;;;;;14.07;6.90;;;;;;;;;;4963955;28;20067;-77
2022/01/13 11:54:08;;;;;;;13.40;6.00;;;;;;;;;;4954996;28;20504;-77
2022/01/13 11:57:11;;;;;;;14.77;5.75;;;;;;;;;;4968215;28;20078;-77
2022/01/13 11:59:40;;;;;;;19.67;7.03;;;;;;;;;;4968218;28;20042;-77
2022/01/13 12:02:24;;;;;;;15.13;6.67;;;;;;;;;;4949896;28;20093;-77
2022/01/13 12:05:06;;;;;;;14.80;6.60;;;;;;;;;;4970940;28;20066;-77
2022/01/13 12:07:37;;;;;;;19.33;7.85;;;;;;;;;;4954835;28;20494;-77
2022/01/13 12:10:28;;;;;;;14.57;7.50;;;;;;;;;;4952218;28;20528;-77
2022/01/13 12:12:58;;;;;;;16.42;6.25;;;;;;;;;;4950850;28;20078;-77
2022/01/13 12:15:47;;;;;;;14.90;6.50;;;;;;;;;;4968952;28;20035;-77
2022/01/13 12:18:16;;;;;;;19.02;6.97;;;;;;;;;;4964678;28;20055;-77
2022/01/13 12:21:09;;;;;;;14.95;6.80;;;;;;;;;;4936038;28;20059;-77
2022/01/13 12:23:45;;;;;;;16.70;6.82;;;;;;;;;;4965725;28;20043;-77
2022/01/13 12:26:30;;;;;;;13.38;5.50;;;;;;;;;;4968687;28;20050;-77
2022/01/13 12:29:12;;;;;;;9.90;4.80;;;;;;;;;;4953181;28;20050;-77
2022/01/13 12:31:49;;;;;;;13.07;5.68;;;;;;;;;;4934571;28;20412;-77
2022/01/13 12:34:23;;;;;;;15.57;5.88;;;;;;;;;;4966776;28;20051;-77
2022/01/13 12:36:52;;;;;;;12.68;5.75;;;;;;;;;;4965956;28;20043;-77
2022/01/13 12:39:24;;;;;;;12.45;6.35;;;;;;;;;;4972273;28;20134;-77
2022/01/13 12:42:15;;;;;;;12.60;5.03;;;;;;;;;;4966506;28;20059;-77
2022/01/13 12:48:18;;;;;;;17.02;5.72;;;;;;;;;;4952510;28;20053;-77
2022/01/13 12:51:10;;;;;;;12.80;5.32;;;;;;;;;;4954247;28;20129;-77
2022/01/13 12:53:39;;;;;;;16.27;6.07;;;;;;;;;;4967895;28;20074;-77
2022/01/13 12:56:12;;;;;;;17.63;4.77;;;;;;;;;;4967847;28;20498;-77
2022/01/13 12:59:01;;;;;;;15.48;6.65;;;;;;;;;;4947761;28;20063;-77
2022/01/13 13:01:35;;;;;;;15.05;6.00;;;;;;;;;;4951503;28;20094;-77
2022/01/13 13:04:24;;;;;;;15.75;6.95;;;;;;;;;;4947893;28;20039;-77
2022/01/13 13:06:54;;;;;;;12.23;5.03;;;;;;;;;;4951157;28;20051;-75
2022/01/13 13:09:26;;;;;;;11.53;5.03;;;;;;;;;;4968629;28;20051;-75
2022/01/13 13:11:58;;;;;;;14.73;5.72;;;;;;;;;;4950713;28;20433;-76
2022/01/13 13:17:45;;;;;;;13.73;5.80;;;;;;;;;;4965623;28;20042;-76
2022/01/13 13:20:52;;;;;;;7.22;4.50;;;;;;;;;;4964390;28;20410;-76
2022/01/13 13:23:31;;;;;;;14.00;5.50;;;;;;;;;;4964304;28;20059;-77
2022/01/13 13:26:22;;;;;;;12.57;5.43;;;;;;;;;;4965833;28;20049;-76
2022/01/13 13:28:52;;;;;;;11.73;4.95;;;;;;;;;;4948103;28;20066;-76
2022/01/13 13:31:45;;;;;;;7.90;3.85;;;;;;;;;;4968555;28;20054;-76
2022/01/13 13:34:51;;;;;;;8.98;4.50;;;;;;;;;;4969323;28;20047;-76
2022/01/13 13:37:20;;;;;;;12.90;5.13;;;;;;;;;;4947800;28;20503;-76
2022/01/13 13:39:49;;;;;;;10.48;3.88;;;;;;;;;;4973309;28;20118;-78
2022/01/13 13:42:18;;;;;;;10.98;4.68;;;;;;;;;;4970870;28;20050;-76
2022/01/13 13:44:48;;;;;;;13.52;4.80;;;;;;;;;;4953295;28;20042;-76
2022/01/13 13:47:18;;;;;;;8.65;3.80;;;;;;;;;;4971424;28;20053;-77
2022/01/13 13:49:50;;;;;;;11.60;4.73;;;;;;;;;;4973115;28;20049;-77
2022/01/13 13:52:21;;;;;;;10.10;4.80;;;;;;;;;;4971448;28;20074;-77
2022/01/13 13:54:53;;;;;;;9.73;4.38;;;;;;;;;;4968966;28;20058;-76
2022/01/13 13:57:24;;;;;;;13.40;5.90;;;;;;;;;;4967881;28;20454;-77
2022/01/13 13:59:55;;;;;;;8.48;4.07;;;;;;;;;;4950129;28;20046;-76
2022/01/13 14:02:29;;;;;;;11.60;4.67;;;;;;;;;;4947206;28;20059;-76
2022/01/13 14:05:27;;;;;;;12.38;5.53;;;;;;;;;;4971361;28;20047;-77
2022/01/13 14:08:05;;;;;;;9.02;4.32;;;;;;;;;;4952902;28;20138;-76
2022/01/13 14:10:34;;;;;;;10.55;4.53;;;;;;;;;;4968881;28;20465;-77
2022/01/13 14:13:04;;;;;;;11.75;4.68;;;;;;;;;;4973859;28;20050;-76
2022/01/13 14:15:35;;;;;;;8.90;4.20;;;;;;;;;;4952466;28;20038;-76
2022/01/13 14:18:12;;;;;;;9.95;4.10;;;;;;;;;;4966896;28;20505;-77
2022/01/13 14:20:44;;;;;;;10.90;4.65;;;;;;;;;;4968315;28;20034;-76
2022/01/13 14:23:19;;;;;;;8.40;3.28;;;;;;;;;;4966203;28;20043;-77
2022/01/13 14:25:48;;;;;;;10.95;4.80;;;;;;;;;;4969872;28;20294;-77
2022/01/13 14:28:25;;;;;;;9.53;4.03;;;;;;;;;;4973212;28;20050;-76
2022/01/13 14:31:01;;;;;;;12.32;5.13;;;;;;;;;;4972577;28;20046;-76
2022/01/13 14:33:30;;;;;;;8.90;4.07;;;;;;;;;;4967806;28;20043;-77
2022/01/13 14:36:02;;;;;;;15.68;5.18;;;;;;;;;;4972937;28;20105;-77
2022/01/13 14:38:42;;;;;;;9.07;4.20;;;;;;;;;;4972075;28;20047;-76
2022/01/13 14:41:13;;;;;;;8.63;3.50;;;;;;;;;;4952656;28;20054;-76
2022/01/13 14:43:42;;;;;;;8.60;4.03;;;;;;;;;;4966898;28;20055;-77
2022/01/13 14:46:13;;;;;;;11.95;4.75;;;;;;;;;;4970761;28;20047;-76
2022/01/13 14:48:44;;;;;;;11.60;3.95;;;;;;;;;;4948230;28;20052;-76
2022/01/13 14:51:13;;;;;;;9.38;3.50;;;;;;;;;;4967192;28;20050;-76
2022/01/13 14:53:44;;;;;;;10.37;3.50;;;;;;;;;;4963164;28;20050;-77
2022/01/13 14:56:14;;;;;;;10.18;4.90;;;;;;;;;;4966313;28;20489;-77
2022/01/13 14:58:43;;;;;;;10.43;4.60;;;;;;;;;;4962840;28;20054;-77
2022/01/13 15:01:12;;;;;;;9.60;3.88;;;;;;;;;;4966594;28;20808;-76
2022/01/13 15:03:42;;;;;;;12.18;4.57;;;;;;;;;;4955243;28;20513;-77
2022/01/13 15:06:11;;;;;;;9.27;4.13;;;;;;;;;;4967017;28;20072;-77
2022/01/13 15:08:40;;;;;;;9.10;4.43;;;;;;;;;;4949802;28;20485;-77
2022/01/13 15:11:13;;;;;;;9.95;4.10;;;;;;;;;;4946157;28;20061;-77
2022/01/13 15:13:44;;;;;;;12.32;4.05;;;;;;;;;;4954377;28;20043;-76
2022/01/13 15:16:12;;;;;;;10.95;4.18;;;;;;;;;;4950894;28;20051;-76
2022/01/13 15:18:42;;;;;;;9.60;4.30;;;;;;;;;;4951958;28;20043;-76
2022/01/13 15:21:11;;;;;;;9.65;4.35;;;;;;;;;;4949360;28;20058;-76
2022/01/13 15:23:41;;;;;;;12.02;4.10;;;;;;;;;;4951028;28;20102;-76
2022/01/13 15:26:11;;;;;;;11.38;4.15;;;;;;;;;;4947888;28;20039;-76
2022/01/13 15:28:40;;;;;;;10.77;4.28;;;;;;;;;;4951434;28;20047;-76
2022/01/13 15:31:08;;;;;;;9.30;4.20;;;;;;;;;;4947816;28;20055;-76
2022/01/13 15:33:38;;;;;;;11.45;4.80;;;;;;;;;;4947465;28;20046;-76
2022/01/13 15:36:08;;;;;;;11.50;4.05;;;;;;;;;;4948026;28;20051;-76
2022/01/13 15:38:45;;;;;;;10.18;4.07;;;;;;;;;;4945989;28;20487;-76
2022/01/13 15:41:15;;;;;;;9.50;4.85;;;;;;;;;;4950711;28;20052;-76
2022/01/13 15:43:44;;;;;;;9.37;3.87;;;;;;;;;;4946917;28;20410;-76